MMMD/MID METAR and TAF weather

Enter ICAO airport designator
Station Type Date Time Source
MMMD METAR 2021/01/16 02:49 UTC NOAA

MMMD 160249Z 32004KT 7SM BKN070 OVC300 22/19 A3005 RMK SLP170 52015 917 8/077


Station Type Date Time Source
MMMD Decoded METAR 2021/01/16 02:49 UTC NOAA

Merida / lic Manuel Crecencio, Mexico (MMMD) 20-56N 089-39W 11M
Jan 15, 2021 - 09:49 PM EST / 2021.01.16 0249 UTC
Wind: from the NW (320 degrees) at 5 MPH (4 KT):0
Visibility: 7 mile(s):0
Sky conditions: overcast
Temperature: 71 F (22 C)
Dew Point: 66 F (19 C)
Relative Humidity: 83%
Pressure (altimeter): 30.05 in. Hg (1017 hPa)
Pressure tendency: 0.04 inches (1.5 hPa) higher than three hours ago
ob: MMMD 160249Z 32004KT 7SM BKN070 OVC300 22/19 A3005 RMK SLP170 52015 917 8/077
cycle: 3

Station Type Date Time Source
MMMD TAF 2021/01/15 18:09 UTC NOAA

TAF MMMD 151707Z 1518/1624 35010KT P6SM SCT020 SCT080 BKN200 TX29/1519Z TN16/1610Z
FM160300 34015KT 6SM HZ BKN015 BKN070 BKN200
TEMPO 1604/1608 3SM RA BKN005 OVC010
FM161000 01015KT P6SM BKN015
FM161600 03015KT P6SM BKN020
FM161900 03015KT P6SM BKN200

Example: see airport list